Current Weather

München

München, Germany (EDDM)

Report from: Sunday, February 25, 2024 2:50 AM CET
Current time: Sunday, February 25, 2024 3:21 AM CET

Nearby weather – Weather history – Daily summaries
Weather forecast

Temperature5.0°C (41.0°F)
Dew point2.0°C (35.6°F)
Winds 1 kts (0.5 m/s, 1.2 mph) Vrb
Winds variableWinds variable
Visibility6.2 mi. (10 km)
Clouds Few clouds 4,200 ft. (1,280 m)
Altimeter29.77 in.Hg (1008 mB)
Relative humidity81 %
Density altitude-924 ft. (-282 m)
Remarks Fully automated report
No significant changes expected in the next two hours
Flight conditions Visual Meteorological Conditions
Raw dataEDDM 250150Z AUTO VRB01KT 9999 FEW042 05/02 Q1008 NOSIG
An error has occurred. This application may no longer respond until reloaded. Reload 🗙